createdAt,value
2023-01-22T00:00:21.045Z,0.73
2023-01-22T00:05:24.958Z,0.30
2023-01-22T00:10:30.644Z,0.20
2023-01-22T00:15:35.385Z,0.30
2023-01-22T00:20:41.648Z,0.20
2023-01-22T00:25:46.093Z,0.30
2023-01-22T00:31:03.881Z,2.00
2023-01-22T00:36:16.228Z,1.47
2023-01-22T00:41:23.821Z,1.10
2023-01-22T00:46:27.702Z,0.23
2023-01-22T00:51:33.999Z,0.20
2023-01-22T00:56:37.911Z,0.20
2023-01-22T01:01:41.795Z,0.30
2023-01-22T01:06:46.972Z,0.97
2023-01-22T01:11:51.471Z,1.43
2023-01-22T01:16:58.361Z,2.73
2023-01-22T01:22:02.782Z,1.07
2023-01-22T01:27:08.001Z,2.10
2023-01-22T01:32:14.237Z,0.40
2023-01-22T01:37:48.634Z,1.20
2023-01-22T01:42:53.400Z,0.30
2023-01-22T01:48:19.698Z,0.87
2023-01-22T01:53:23.744Z,3.23
2023-01-22T01:58:33.987Z,2.10
2023-01-22T02:03:40.100Z,0.20
2023-01-22T02:08:50.852Z,2.87
2023-01-22T02:14:12.665Z,0.98
2023-01-22T02:19:20.919Z,2.90
2023-01-22T02:24:24.892Z,2.00
2023-01-22T02:29:29.752Z,0.30
2023-01-22T02:34:33.586Z,2.77
2023-01-22T02:39:39.743Z,0.20
2023-01-22T02:44:45.912Z,0.20
2023-01-22T02:49:51.056Z,1.67
2023-01-22T02:54:54.976Z,0.20
2023-01-22T03:00:00.930Z,3.07
2023-01-22T03:05:05.409Z,5.03
2023-01-22T03:10:14.120Z,0.20
2023-01-22T03:15:37.937Z,2.53
2023-01-22T03:21:01.376Z,0.20
2023-01-22T03:26:06.204Z,4.60
2023-01-22T03:31:11.787Z,0.80
2023-01-22T03:36:18.936Z,4.70
2023-01-22T03:41:30.760Z,0.30
2023-01-22T03:46:42.929Z,0.17
2023-01-22T03:51:47.210Z,0.70
2023-01-22T03:56:55.419Z,0.20
2023-01-22T04:02:05.602Z,7.43
2023-01-22T04:07:18.436Z,1.40
2023-01-22T04:12:23.057Z,9.63
2023-01-22T04:17:28.388Z,3.77
2023-01-22T04:22:52.449Z,5.77
2023-01-22T04:27:57.424Z,1.00
2023-01-22T04:33:03.348Z,2.73
2023-01-22T04:38:18.929Z,0.83
2023-01-22T04:43:24.725Z,2.80
2023-01-22T04:48:29.591Z,1.50
2023-01-22T04:53:34.337Z,2.20
2023-01-22T04:58:42.872Z,1.10
2023-01-22T05:03:47.551Z,1.07
2023-01-22T05:08:51.551Z,1.60
2023-01-22T05:13:55.538Z,0.23
2023-01-22T05:19:01.454Z,0.43
2023-01-22T05:24:10.243Z,1.80
2023-01-22T05:29:16.957Z,1.73
2023-01-22T05:34:24.882Z,1.60
2023-01-22T05:39:29.739Z,1.50
2023-01-22T05:44:37.171Z,1.83
2023-01-22T05:49:43.116Z,1.27
2023-01-22T05:54:50.259Z,2.20
2023-01-22T05:59:54.919Z,2.20
2023-01-22T06:05:01.005Z,2.08
2023-01-22T06:10:06.308Z,2.80
2023-01-22T06:15:20.972Z,1.35
2023-01-22T06:20:33.619Z,2.95
2023-01-22T06:25:39.391Z,2.23
2023-01-22T06:30:58.280Z,0.87
2023-01-22T06:36:04.368Z,4.67
2023-01-22T06:41:10.714Z,5.07
2023-01-22T06:46:16.291Z,0.97
2023-01-22T06:51:40.299Z,2.08
2023-01-22T06:56:49.531Z,6.00
2023-01-22T07:01:54.817Z,1.33
2023-01-22T07:06:59.851Z,4.40
2023-01-22T07:12:03.938Z,1.88
2023-01-22T07:17:13.709Z,2.20
2023-01-22T07:22:17.490Z,1.83
2023-01-22T07:27:24.548Z,0.97
2023-01-22T07:32:31.879Z,2.07
2023-01-22T07:43:53.476Z,4.53
2023-01-22T07:48:57.240Z,5.60
2023-01-22T07:59:07.594Z,6.50
2023-01-22T08:04:14.138Z,5.50
2023-01-22T08:09:26.019Z,5.97
2023-01-22T08:14:30.647Z,5.33
2023-01-22T08:19:35.881Z,6.90
2023-01-22T08:24:41.841Z,0.40
2023-01-22T08:29:46.450Z,10.27
2023-01-22T08:34:56.892Z,5.80
2023-01-22T08:40:01.972Z,10.03
2023-01-22T08:45:07.273Z,7.57
2023-01-22T08:50:11.727Z,7.97
2023-01-22T08:55:17.136Z,9.27
2023-01-22T09:00:22.416Z,7.97
2023-01-22T09:05:29.992Z,4.60
2023-01-22T09:10:33.963Z,4.50
2023-01-22T09:15:38.744Z,7.90
2023-01-22T09:20:42.789Z,5.22
2023-01-22T09:25:48.772Z,7.07
2023-01-22T09:30:52.545Z,9.07
2023-01-22T09:36:08.603Z,8.98
2023-01-22T09:41:16.403Z,8.27
2023-01-22T09:46:44.076Z,6.23
2023-01-22T09:52:05.147Z,5.87
2023-01-22T09:57:30.673Z,2.87
2023-01-22T10:02:46.176Z,7.43
2023-01-22T10:08:03.000Z,4.70
2023-01-22T10:13:29.167Z,8.27
2023-01-22T10:18:41.927Z,7.43
2023-01-22T10:23:45.954Z,3.10
2023-01-22T10:28:55.613Z,8.38
2023-01-22T10:34:02.469Z,4.83
2023-01-22T10:39:15.993Z,7.57
2023-01-22T10:44:26.829Z,7.63
2023-01-22T10:49:32.056Z,10.80
2023-01-22T10:54:45.932Z,6.43
2023-01-22T10:59:57.133Z,6.13
2023-01-22T11:05:21.119Z,8.57
2023-01-22T11:10:57.654Z,7.93
2023-01-22T11:16:19.005Z,6.70
2023-01-22T11:21:33.057Z,7.60
2023-01-22T11:26:55.827Z,8.83
2023-01-22T11:32:24.020Z,6.30
2023-01-22T11:37:36.147Z,10.80
2023-01-22T11:43:00.619Z,4.40
2023-01-22T11:48:32.301Z,8.70
2023-01-22T11:54:01.991Z,4.67
2023-01-22T11:59:51.208Z,7.33
2023-01-22T12:05:38.239Z,9.87
2023-01-22T12:11:10.981Z,7.87
2023-01-22T12:16:32.789Z,9.53
2023-01-22T12:22:01.865Z,9.90
2023-01-22T12:27:16.996Z,10.83
2023-01-22T12:32:25.165Z,6.67
2023-01-22T12:37:42.042Z,11.07
2023-01-22T12:43:02.291Z,11.97
2023-01-22T12:48:25.139Z,12.43
2023-01-22T12:53:30.517Z,7.83
2023-01-22T12:58:43.080Z,7.67
2023-01-22T13:04:01.968Z,10.47
2023-01-22T13:09:25.327Z,9.53
2023-01-22T13:14:34.007Z,7.50
2023-01-22T13:19:45.802Z,8.97
2023-01-22T13:24:55.507Z,9.67
2023-01-22T13:30:22.047Z,8.43
2023-01-22T13:35:25.866Z,7.40
2023-01-22T13:40:42.730Z,9.87
2023-01-22T13:45:53.166Z,6.30
2023-01-22T13:51:12.534Z,20.17
2023-01-22T13:56:21.936Z,6.47
2023-01-22T14:01:32.083Z,3.77
2023-01-22T14:06:50.276Z,9.03
2023-01-22T14:11:54.170Z,9.57
2023-01-22T14:17:00.015Z,10.07
2023-01-22T14:22:03.829Z,6.33
2023-01-22T14:27:09.984Z,8.03
2023-01-22T14:32:13.736Z,11.27
2023-01-22T14:37:19.169Z,4.07
2023-01-22T14:42:27.272Z,9.13
2023-01-22T14:47:31.791Z,5.70
2023-01-22T14:52:43.071Z,8.43
2023-01-22T14:57:51.154Z,9.80
2023-01-22T15:03:00.959Z,9.67
2023-01-22T15:08:05.539Z,7.60
2023-01-22T15:13:11.163Z,8.40
2023-01-22T15:18:15.732Z,11.93
2023-01-22T15:23:19.714Z,10.20
2023-01-22T15:28:24.239Z,8.73
2023-01-22T15:33:29.913Z,8.63
2023-01-22T15:38:34.854Z,11.50
2023-01-22T15:43:40.432Z,7.93
2023-01-22T15:48:44.573Z,7.67
2023-01-22T15:53:56.584Z,10.85
2023-01-22T15:59:01.724Z,10.07
2023-01-22T16:04:05.738Z,8.77
2023-01-22T16:09:11.727Z,7.33
2023-01-22T16:14:15.583Z,14.95
2023-01-22T16:19:20.368Z,12.53
2023-01-22T16:24:24.179Z,10.07
2023-01-22T16:34:34.692Z,11.03
2023-01-22T16:39:38.909Z,9.10
2023-01-22T16:44:42.786Z,11.83
2023-01-22T16:49:46.928Z,12.53
2023-01-22T16:55:51.776Z,7.77
2023-01-22T17:00:55.771Z,8.10
2023-01-22T17:06:00.605Z,6.40
2023-01-22T17:11:06.610Z,11.30
2023-01-22T17:16:11.981Z,14.25
2023-01-22T17:21:19.999Z,12.37
2023-01-22T17:26:23.979Z,8.57
2023-01-22T17:31:28.095Z,6.97
2023-01-22T17:36:33.656Z,5.70
2023-01-22T17:41:37.377Z,10.90
2023-01-22T17:51:48.498Z,10.53
2023-01-22T17:56:54.938Z,12.53
2023-01-22T18:02:01.629Z,5.95
2023-01-22T18:12:11.811Z,7.50
2023-01-22T18:17:15.698Z,7.80
2023-01-22T18:22:21.967Z,6.73
2023-01-22T18:27:26.941Z,6.82
2023-01-22T18:32:32.927Z,5.63
2023-01-22T18:37:38.307Z,7.30
2023-01-22T18:42:44.522Z,7.17
2023-01-22T18:47:56.658Z,4.38
2023-01-22T18:53:04.029Z,7.40
2023-01-22T18:58:20.603Z,6.50
2023-01-22T19:03:27.718Z,6.53
2023-01-22T19:08:31.621Z,6.27
2023-01-22T19:13:36.191Z,8.37
2023-01-22T19:18:44.325Z,8.52
2023-01-22T19:23:55.170Z,3.80
2023-01-22T19:29:05.382Z,4.83
2023-01-22T19:34:13.039Z,5.80
2023-01-22T19:44:21.196Z,6.57
2023-01-22T19:49:25.781Z,4.17
2023-01-22T19:54:29.723Z,2.57
2023-01-22T19:59:35.939Z,5.90
2023-01-22T20:04:41.789Z,4.37
2023-01-22T20:09:45.756Z,3.77
2023-01-22T20:14:54.435Z,4.00
2023-01-22T20:19:58.267Z,5.83
2023-01-22T20:25:03.758Z,3.97
2023-01-22T20:30:09.006Z,3.80
2023-01-22T20:35:19.174Z,5.17
2023-01-22T20:40:26.516Z,4.50
2023-01-22T20:45:33.826Z,5.10
2023-01-22T20:50:43.041Z,3.80
2023-01-22T20:55:49.501Z,4.00
2023-01-22T21:00:56.836Z,3.90
2023-01-22T21:06:13.562Z,3.73
2023-01-22T21:11:21.304Z,3.57
2023-01-22T21:16:27.947Z,3.42
2023-01-22T21:21:38.058Z,3.83
2023-01-22T21:26:44.010Z,2.97
2023-01-22T21:31:53.281Z,3.47
2023-01-22T21:37:02.007Z,4.67
2023-01-22T21:42:25.787Z,4.83
2023-01-22T21:47:31.572Z,3.50
2023-01-22T21:52:35.460Z,4.17
2023-01-22T21:57:40.574Z,4.97
2023-01-22T22:02:46.547Z,3.57
2023-01-22T22:07:50.559Z,3.67
2023-01-22T22:12:54.461Z,2.63
2023-01-22T22:18:00.168Z,3.80
2023-01-22T22:23:05.960Z,3.55
2023-01-22T22:28:11.796Z,3.63
2023-01-22T22:33:15.820Z,2.80
2023-01-22T22:38:21.893Z,2.93
2023-01-22T22:43:25.795Z,3.73
2023-01-22T22:48:29.779Z,3.23
2023-01-22T22:53:34.698Z,2.70
2023-01-22T22:58:40.517Z,3.10
2023-01-22T23:03:46.179Z,3.60
2023-01-22T23:08:55.078Z,2.80
2023-01-22T23:14:03.469Z,3.67
2023-01-22T23:19:20.872Z,3.07
2023-01-22T23:24:28.565Z,3.27
2023-01-22T23:29:33.491Z,4.07
2023-01-22T23:34:42.174Z,4.83
2023-01-22T23:39:46.705Z,3.53
2023-01-22T23:44:50.550Z,2.67
2023-01-22T23:49:54.388Z,3.50
2023-01-22T23:55:00.054Z,4.27
